Monday, April 21, 2014, 6:27 AM EDT

KGED, Georgetown Sussex Co Airport

Location: Georgetown, DE, United States Lat: 38.683
Local Time: 6:27 AM EDT (10:27 GMT) Lon: -75.367
Time Zone: US/Eastern Elev: 52 ft

Show me the last for .
Show Decoded

2014-04-21 05:54 METAR KGED 210954Z AUTO 36005KT 10SM CLR 06/03 A3019 RMK AO2 SLP224 T00560028 =
2014-04-21 04:54 METAR KGED 210854Z AUTO 02005KT 10SM CLR 06/02 A3020 RMK AO2 SLP225 T00560022
                 56020 =
2014-04-21 03:54 METAR KGED 210754Z AUTO 05004KT 10SM CLR 04/02 A3021 RMK AO2 SLP231 T00440017 =
2014-04-21 02:54 METAR KGED 210654Z AUTO 04003KT 10SM CLR 05/02 A3023 RMK AO2 SLP237 T00500017 =
2014-04-21 01:54 METAR KGED 210554Z AUTO 04004KT 10SM CLR 05/02 A3025 RMK AO2 SLP245 T00500017
                 10072 20050 56020 =
2014-04-21 00:54 METAR KGED 210454Z AUTO 06004KT 10SM CLR 05/02 A3027 RMK AO2 SLP251 T00500017
                 401330050 =
2014-04-20 23:54 METAR KGED 210354Z AUTO 03004KT 10SM CLR 06/01 A3030 RMK AO2 SLP259 T00560011 =
2014-04-20 22:54 METAR KGED 210254Z AUTO 04006KT 10SM CLR 06/01 A3031 RMK AO2 SLP265 T00560006
                 58015 =
2014-04-20 21:54 METAR KGED 210154Z AUTO 05006KT 10SM CLR 06/01 A3034 RMK AO2 SLP273 T00560006 =
2014-04-20 20:54 METAR KGED 210054Z AUTO 06009KT 10SM CLR 07/01 A3035 RMK AO2 SLP278 T00670006 =
2014-04-20 19:54 METAR KGED 202354Z AUTO 07007KT 10SM CLR 07/01 A3036 RMK AO2 SLP280 T00720006
                 10133 20072 56012 =
2014-04-20 18:54 METAR KGED 202254Z AUTO 06012KT 10SM CLR 09/M01 A3036 RMK AO2 SLP282 T00891006 =
2014-04-20 17:54 METAR KGED 202154Z AUTO 05014G20KT 10SM CLR 10/M01 A3038 RMK AO2 SLP288
                 T01001006 =
2014-04-20 16:54 METAR KGED 202054Z AUTO 08012KT 10SM CLR 11/M01 A3039 RMK AO2 SLP292 T01111011
                 56010 =
2014-04-20 15:54 METAR KGED 201954Z AUTO 08015G23KT 10SM CLR 12/M02 A3040 RMK AO2 SLP296
                 T01171017 =
2014-04-20 14:54 METAR KGED 201854Z AUTO 05018G22KT 10SM CLR 12/01 A3041 RMK AO2 PK WND
                 05026/1807 SLP298 T01220011 =
2014-04-20 13:54 METAR KGED 201754Z AUTO 05018G25KT 10SM CLR 12/03 A3042 RMK AO2 PK WND
                 06026/1721 SLP302 T01220033 10133 20106 56009 =
2014-04-20 12:54 METAR KGED 201654Z AUTO 06019G24KT 10SM CLR 13/03 A3043 RMK AO2 SLP304 T01280033
                 =
2014-04-20 11:54 METAR KGED 201554Z AUTO 08014G24KT 10SM CLR 13/03 A3044 RMK AO2 SLP308 T01280028
                 =
2014-04-20 10:54 METAR KGED 201454Z AUTO 09016G24KT 10SM CLR 12/03 A3045 RMK AO2 SLP311 T01220028
                 51027 =
2014-04-20 09:54 METAR KGED 201354Z AUTO 06019G25KT 10SM CLR 12/02 A3042 RMK AO2 PK WND
                 07026/1310 SLP302 T01220022 =
2014-04-20 08:54 METAR KGED 201254Z AUTO 07015G23KT 10SM CLR 12/02 A3040 RMK AO2 PK WND
                 06027/1207 SLP296 T01170022 =
2014-04-20 07:54 METAR KGED 201154Z AUTO 06018G25KT 10SM CLR 11/03 A3037 RMK AO2 SLP284 T01060028
                 10106 20067 53012 =
2014-04-20 06:54 METAR KGED 201054Z AUTO 06008KT 10SM CLR 09/04 A3035 RMK AO2 SLP277 T00890039 =

Support USWX by starting your Amazon purchase here.